Guemes, Washington
Current Conditions -  °F | °C
As of 1:56 AM on Monday 26 Jan 2015 (Local Time) from KNUW Reporting Station
Moderate Fog Moderate Fog  
Wind Chill:   Ceiling: 200
Heat Index:   Visibility: 0.25mi
Dew Point:   Wind: 0mph
Humidity: 89%   Direction: NA
Pressure: 29.95"   Gusts: NA
Location:  48.4652°N, 122.617°W
Report Text: KNUW 260956Z 00000KT 1/4SM FG VV002 08/06 A2995 RMK AO2 TWR VIS 1/2 SLP147 T00780061 VISNO E $
Loading
Personal Weather Stations






























Interactive Weather Map New forecast layout! Learn more

10-Day Weather Forecast

Advertisements
Track Severe Weather on mobile